Time;durP1;ratioP1;P1;durP2;ratioP2;P2;SDS_P1;SDS_P2;PMS_P1;PMS_P2;Temp;Humidity;BMP_temperature;BMP_pressure;BME280_temperature;BME280_humidity;BME280_pressure;Samples;Min_cycle;Max_cycle;Signal;HPM_P1;HPM_P2
2022/01/25 00:09:32;;;;;;;22.48;17.85;;;15.80;49.60;14.80;103019.00;;;;5065425;28;20551;-72
2022/01/25 00:25:08;;;;;;;24.27;18.88;;;15.80;49.60;14.80;103026.00;;;;5059403;28;20535;-72
2022/01/25 00:28:05;;;;;;;23.35;18.38;;;15.80;49.60;14.80;103008.00;;;;5051585;28;20048;-71
2022/01/25 00:34:07;;;;;;;26.30;20.23;;;15.80;49.70;14.80;103015.00;;;;5054711;28;20432;-72
2022/01/25 00:36:53;;;;;;;25.27;20.63;;;15.80;49.60;14.80;103011.00;;;;5054478;28;20536;-72
2022/01/25 00:39:40;;;;;;;23.90;19.08;;;15.70;49.50;14.80;103009.00;;;;5059355;28;20040;-72
2022/01/25 00:42:26;;;;;;;22.90;17.98;;;15.80;49.60;14.80;103009.00;;;;5056403;28;20091;-72
2022/01/25 00:45:15;;;;;;;25.55;19.98;;;15.80;49.60;14.80;103012.00;;;;5055221;28;20060;-72
2022/01/25 00:48:03;;;;;;;27.15;20.00;;;15.80;49.60;14.80;103001.00;;;;5059373;28;20039;-72
2022/01/25 00:50:49;;;;;;;26.40;19.85;;;15.80;49.60;14.80;103006.00;;;;5062340;28;20050;-72
2022/01/25 00:56:44;;;;;;;27.90;20.80;;;15.80;49.50;14.80;103007.00;;;;5052425;28;20028;-72
2022/01/25 00:59:31;;;;;;;27.13;21.02;;;15.80;49.50;14.80;103000.00;;;;5061528;28;20203;-72
2022/01/25 01:02:17;;;;;;;28.20;21.45;;;15.80;49.50;14.80;103007.00;;;;5063074;28;20090;-72
2022/01/25 01:05:03;;;;;;;27.30;21.25;;;15.80;49.50;14.80;102998.00;;;;5047852;28;20123;-72
2022/01/25 01:07:49;;;;;;;25.85;20.33;;;15.80;49.50;14.80;103001.00;;;;5058699;28;20071;-72
2022/01/25 01:10:35;;;;;;;28.75;22.15;;;15.80;49.40;14.80;103000.00;;;;5058241;28;20120;-72
2022/01/25 01:13:49;;;;;;;27.83;21.02;;;15.80;49.50;14.80;102995.00;;;;5062091;28;20029;-72
2022/01/25 01:29:04;;;;;;;27.30;21.85;;;15.80;49.40;14.80;102998.00;;;;5046692;28;20452;-72
2022/01/25 01:32:18;;;;;;;28.30;22.60;;;15.80;49.30;14.80;103015.00;;;;5046805;28;20148;-72
2022/01/25 01:35:32;;;;;;;28.48;22.33;;;15.80;49.30;14.80;103013.00;;;;5058779;28;20043;-72
2022/01/25 01:38:52;;;;;;;;;;;15.70;49.20;14.70;103017.00;;;;5058452;28;20488;-72
2022/01/25 01:44:26;;;;;;;30.33;22.48;;;15.70;49.10;14.70;103003.00;;;;5050456;28;20070;-72
2022/01/25 01:47:22;;;;;;;29.70;23.10;;;15.80;49.20;14.80;102998.00;;;;5060279;28;20086;-72
2022/01/25 01:50:13;;;;;;;28.42;22.20;;;15.70;49.10;14.70;103005.00;;;;5069370;28;20790;-72
2022/01/25 01:53:00;;;;;;;29.17;22.27;;;15.70;49.20;14.70;103000.00;;;;5063315;28;20187;-72
2022/01/25 01:55:46;;;;;;;29.52;21.88;;;15.70;49.20;14.80;103001.00;;;;5047078;28;20437;-72
2022/01/25 01:58:34;;;;;;;29.88;22.85;;;15.70;49.10;14.70;102992.00;;;;5052492;28;20119;-72
2022/01/25 02:01:20;;;;;;;28.63;22.15;;;15.80;49.20;14.80;102994.00;;;;5039564;28;20044;-72
2022/01/25 02:04:08;;;;;;;30.55;22.65;;;15.70;49.10;14.70;102995.00;;;;5060307;28;20119;-72
2022/01/25 02:06:54;;;;;;;31.48;23.20;;;15.70;49.10;14.80;102992.00;;;;5051617;28;20059;-72
2022/01/25 02:09:40;;;;;;;28.38;22.10;;;15.70;49.10;14.80;102987.00;;;;5063539;28;20402;-72
2022/01/25 02:12:27;;;;;;;27.30;21.42;;;15.70;49.10;14.80;102983.00;;;;5066339;28;20036;-72
2022/01/25 02:15:14;;;;;;;27.35;21.10;;;15.70;49.00;14.80;102985.00;;;;5069095;28;20063;-72
2022/01/25 02:24:09;;;;;;;26.75;21.05;;;15.70;49.00;14.70;102974.00;;;;5064104;28;20047;-72
2022/01/25 02:26:56;;;;;;;28.33;22.35;;;15.70;49.00;14.70;102969.00;;;;5067636;28;20040;-72
2022/01/25 02:29:42;;;;;;;27.88;21.40;;;15.70;49.00;14.70;102971.00;;;;5065000;28;20452;-72
2022/01/25 02:32:28;;;;;;;29.13;22.00;;;15.70;49.00;14.70;102961.00;;;;5040684;28;20279;-72
2022/01/25 02:35:14;;;;;;;28.77;21.77;;;15.70;49.00;14.70;102971.00;;;;5064524;28;20040;-72
2022/01/25 02:38:00;;;;;;;28.92;21.92;;;15.70;49.00;14.70;102966.00;;;;5060841;28;20037;-72
2022/01/25 02:40:46;;;;;;;27.63;21.75;;;15.70;49.00;14.70;102961.00;;;;5068233;28;20132;-72
2022/01/25 02:43:34;;;;;;;27.30;21.17;;;15.70;49.00;14.70;102967.00;;;;5065156;28;20036;-72
2022/01/25 02:48:29;;;;;;;;;;;15.70;49.00;14.70;102975.00;;;;5064004;28;20040;-72
2022/01/25 02:49:26;;;;;;;26.92;21.65;;;15.70;49.10;14.70;102976.00;;;;5059365;28;19927;-72
2022/01/25 02:52:12;;;;;;;28.70;22.05;;;15.70;48.90;14.70;102970.00;;;;5051837;28;20032;-72
2022/01/25 02:54:58;;;;;;;26.77;20.90;;;15.70;48.90;14.70;102968.00;;;;5065213;28;20047;-72
2022/01/25 02:57:48;;;;;;;29.00;21.85;;;15.70;48.90;14.70;102973.00;;;;5052265;28;20544;-71
2022/01/25 03:00:34;;;;;;;27.95;21.00;;;15.70;49.00;14.70;102967.00;;;;5052451;28;20489;-72
2022/01/25 03:03:20;;;;;;;27.08;21.60;;;15.70;49.00;14.70;102977.00;;;;5046995;28;20117;-72
2022/01/25 03:06:07;;;;;;;27.65;21.15;;;15.70;49.00;14.70;102968.00;;;;5058958;28;20033;-72
2022/01/25 03:08:53;;;;;;;26.23;20.30;;;15.70;49.00;14.70;102968.00;;;;5067386;28;20131;-72
2022/01/25 03:11:39;;;;;;;28.73;20.35;;;15.70;48.90;14.70;102962.00;;;;5051922;28;20468;-72
2022/01/25 03:14:30;;;;;;;28.48;21.77;;;15.70;48.90;14.70;102964.00;;;;5049954;28;20095;-72
2022/01/25 03:17:25;;;;;;;26.58;20.23;;;15.70;48.90;14.70;102958.00;;;;5066976;28;20037;-72
2022/01/25 03:20:18;;;;;;;26.70;20.00;;;15.60;48.90;14.70;102962.00;;;;5061913;28;20039;-72
2022/01/25 03:23:15;;;;;;;25.17;20.05;;;15.70;48.90;14.70;102961.00;;;;5057974;28;20040;-72
2022/01/25 03:26:01;;;;;;;24.40;19.45;;;15.70;48.90;14.70;102958.00;;;;5065785;28;20040;-72
2022/01/25 03:28:47;;;;;;;27.17;20.63;;;15.70;48.90;14.70;102957.00;;;;5063382;28;20041;-72
2022/01/25 03:31:33;;;;;;;27.02;20.65;;;15.60;48.80;14.70;102954.00;;;;5047699;28;20043;-72
2022/01/25 03:34:19;;;;;;;26.65;19.45;;;15.60;48.80;14.70;102951.00;;;;5065021;28;20115;-72
2022/01/25 03:37:06;;;;;;;26.45;20.40;;;15.90;49.00;14.70;102956.00;;;;5051364;28;20036;-72
2022/01/25 03:39:52;;;;;;;26.80;19.83;;;15.60;48.90;14.70;102955.00;;;;5049239;28;20463;-72
2022/01/25 03:42:39;;;;;;;27.42;19.83;;;15.60;48.90;14.70;102952.00;;;;5065968;28;20044;-72
2022/01/25 03:45:31;;;;;;;25.75;19.80;;;15.60;49.00;14.70;102948.00;;;;5059577;28;20098;-72
2022/01/25 03:51:03;;;;;;;25.88;19.35;;;15.60;49.00;14.70;102944.00;;;;5064903;28;20056;-72
2022/01/25 03:53:51;;;;;;;26.55;19.73;;;15.60;49.00;14.70;102937.00;;;;5048307;28;20041;-72
2022/01/25 03:56:37;;;;;;;24.13;19.05;;;15.60;49.00;14.70;102942.00;;;;5060874;28;20037;-72
2022/01/25 03:59:23;;;;;;;24.48;19.33;;;15.60;49.10;14.70;102944.00;;;;5054094;28;20036;-72
2022/01/25 04:02:09;;;;;;;21.85;17.20;;;15.60;49.10;14.70;102946.00;;;;5047284;28;20474;-72
2022/01/25 04:04:57;;;;;;;23.17;18.05;;;15.60;49.10;14.70;102952.00;;;;5051988;28;20044;-72
2022/01/25 04:07:48;;;;;;;21.70;17.20;;;15.60;49.80;14.70;102958.00;;;;5047518;28;20085;-72
2022/01/25 04:10:34;;;;;;;21.42;17.25;;;15.60;49.10;14.70;102957.00;;;;5059521;28;20037;-72
2022/01/25 04:13:20;;;;;;;22.45;17.85;;;15.60;49.10;14.70;102959.00;;;;5049639;28;20033;-71
2022/01/25 04:16:19;;;;;;;22.02;17.48;;;15.60;49.10;14.70;102962.00;;;;5048998;28;20086;-72
2022/01/25 04:19:19;;;;;;;;;;;15.60;49.10;14.70;102963.00;;;;5051501;28;20068;-71
2022/01/25 04:25:05;;;;;;;26.55;18.48;;;15.70;49.00;14.70;102958.00;;;;5062894;28;20040;-72
2022/01/25 04:27:51;;;;;;;23.92;17.30;;;15.70;49.00;14.70;102961.00;;;;5064148;28;20409;-72
2022/01/25 04:30:37;;;;;;;24.20;18.95;;;15.70;48.90;14.70;102958.00;;;;5044167;28;20047;-71
2022/01/25 04:33:27;;;;;;;26.90;19.60;;;15.70;48.90;14.80;102957.00;;;;5060498;28;20032;-72
2022/01/25 04:36:40;;;;;;;21.95;17.58;;;15.70;48.90;14.80;102952.00;;;;5058062;28;20036;-72
2022/01/25 04:49:01;;;;;;;23.02;17.45;;;15.80;48.80;14.80;102947.00;;;;5060937;28;20040;-72
2022/01/25 04:55:33;;;;;;;25.23;17.50;;;15.80;48.70;14.80;102938.00;;;;5062910;28;20036;-72
2022/01/25 04:58:11;;;;;;;21.63;16.90;;;15.80;48.70;14.80;102942.00;;;;5058399;28;20581;-72
2022/01/25 05:00:58;;;;;;;22.33;17.92;;;15.80;48.70;14.80;102944.00;;;;5061324;28;20048;-72
2022/01/25 05:06:41;;;;;;;22.65;17.67;;;15.80;48.60;14.80;102938.00;;;;5062063;28;20048;-72
2022/01/25 05:09:28;;;;;;;22.52;17.80;;;15.80;48.60;14.80;102949.00;;;;5055346;28;20054;-72
2022/01/25 05:12:14;;;;;;;23.17;17.13;;;15.80;48.60;14.80;102947.00;;;;5059398;28;20113;-72
2022/01/25 05:15:16;;;;;;;22.95;17.67;;;15.80;48.60;14.80;102957.00;;;;5060972;28;20033;-72
2022/01/25 05:18:14;;;;;;;21.38;17.75;;;15.80;48.50;14.80;102958.00;;;;5053657;28;20028;-72
2022/01/25 05:24:05;;;;;;;22.17;17.10;;;15.80;48.60;14.80;102960.00;;;;5061766;28;20181;-72
2022/01/25 05:26:51;;;;;;;21.05;16.45;;;15.80;48.50;14.80;102953.00;;;;5067823;28;20055;-72
2022/01/25 05:29:37;;;;;;;24.83;17.80;;;15.80;48.50;14.80;102955.00;;;;5064927;28;20045;-72
2022/01/25 05:32:23;;;;;;;22.17;17.00;;;15.80;48.50;14.80;102960.00;;;;5048711;28;20033;-72
2022/01/25 05:35:10;;;;;;;22.23;16.42;;;15.80;48.50;14.80;102953.00;;;;5051264;28;20109;-72
2022/01/25 05:37:56;;;;;;;23.17;17.15;;;15.70;48.40;14.80;102947.00;;;;5065255;28;20043;-72
2022/01/25 05:40:49;;;;;;;22.90;17.73;;;15.80;48.50;14.80;102949.00;;;;5066048;28;20048;-72
2022/01/25 05:47:03;;;;;;;22.33;16.25;;;15.80;48.50;14.80;102950.00;;;;5068503;28;20048;-72
2022/01/25 05:49:49;;;;;;;20.17;16.08;;;15.80;48.50;14.80;102945.00;;;;5056745;28;20040;-72
2022/01/25 05:52:35;;;;;;;23.23;17.42;;;15.70;48.50;14.80;102944.00;;;;5050908;28;20393;-72
2022/01/25 05:55:21;;;;;;;21.08;16.55;;;15.80;48.50;14.80;102943.00;;;;5054526;28;20041;-72
2022/01/25 05:58:07;;;;;;;22.90;16.80;;;15.70;48.40;14.80;102945.00;;;;5033828;28;20089;-72
2022/01/25 06:00:53;;;;;;;21.52;16.15;;;15.70;48.50;14.80;102953.00;;;;5053713;28;20075;-72
2022/01/25 06:03:42;;;;;;;19.55;15.25;;;15.80;48.50;14.80;102940.00;;;;5066642;28;20032;-72
2022/01/25 06:06:29;;;;;;;22.35;16.95;;;15.70;48.40;14.80;102942.00;;;;5063339;28;20040;-72
2022/01/25 06:09:15;;;;;;;22.58;15.85;;;15.80;48.50;14.80;102938.00;;;;5066219;28;20045;-72
2022/01/25 06:12:01;;;;;;;22.63;17.25;;;15.80;48.40;14.80;102938.00;;;;5068002;28;20028;-72
2022/01/25 06:14:48;;;;;;;23.52;16.50;;;15.80;48.30;14.80;102938.00;;;;5052426;28;20043;-72
2022/01/25 06:17:34;;;;;;;22.27;16.85;;;15.70;48.30;14.80;102935.00;;;;5062147;28;20045;-73
2022/01/25 06:20:20;;;;;;;21.67;16.45;;;15.80;48.30;14.80;102939.00;;;;5056689;28;20047;-72
2022/01/25 06:23:06;;;;;;;20.48;15.57;;;15.80;49.00;14.80;102944.00;;;;5048696;28;20041;-72
2022/01/25 06:25:52;;;;;;;20.33;15.63;;;15.80;48.30;14.80;102937.00;;;;5066432;28;20508;-72
2022/01/25 06:28:38;;;;;;;25.50;17.38;;;15.80;48.30;14.80;102939.00;;;;5058925;28;20146;-72
2022/01/25 06:31:25;;;;;;;23.33;16.88;;;15.80;48.30;14.80;102940.00;;;;5053387;28;20513;-72
2022/01/25 06:34:11;;;;;;;21.85;16.98;;;15.80;48.30;14.80;102933.00;;;;5063669;28;20037;-72
2022/01/25 06:36:57;;;;;;;20.48;15.85;;;15.80;48.30;14.80;102934.00;;;;5066564;28;20032;-72
2022/01/25 06:39:43;;;;;;;20.25;15.73;;;15.80;48.30;14.80;102937.00;;;;5064452;28;20127;-72
2022/01/25 06:42:31;;;;;;;22.20;17.23;;;15.80;48.20;14.80;102938.00;;;;5058361;28;20173;-72
2022/01/25 06:45:20;;;;;;;21.05;15.48;;;15.80;48.30;14.80;102941.00;;;;5068094;28;20063;-72
2022/01/25 06:48:06;;;;;;;20.92;15.60;;;15.80;48.30;14.80;102948.00;;;;5060062;28;20046;-72
2022/01/25 06:50:52;;;;;;;22.20;15.80;;;15.80;48.30;14.80;102943.00;;;;5065696;28;20440;-72
2022/01/25 06:53:38;;;;;;;24.42;16.23;;;15.80;48.30;14.80;102935.00;;;;5051936;28;20036;-72
2022/01/25 06:56:24;;;;;;;20.45;15.70;;;15.80;48.40;14.80;102945.00;;;;5055276;28;20029;-72
2022/01/25 06:59:10;;;;;;;21.85;15.93;;;15.70;48.30;14.80;102947.00;;;;5045792;28;20029;-72
2022/01/25 07:01:56;;;;;;;20.13;15.13;;;15.80;48.30;14.80;102959.00;;;;5056429;28;20193;-72
2022/01/25 07:04:42;;;;;;;22.90;16.23;;;15.80;48.30;14.80;102959.00;;;;5061593;28;20037;-72
2022/01/25 07:07:29;;;;;;;21.98;15.70;;;15.80;48.30;14.80;102956.00;;;;5065309;28;20044;-72
2022/01/25 07:10:15;;;;;;;21.27;15.65;;;15.80;48.30;14.80;102962.00;;;;5063659;28;20093;-72
2022/01/25 07:13:01;;;;;;;20.77;15.65;;;15.80;48.20;14.80;102965.00;;;;5050556;28;20032;-72
2022/01/25 07:15:48;;;;;;;23.15;15.73;;;15.80;48.20;14.80;102965.00;;;;5053172;28;20040;-72
2022/01/25 07:18:34;;;;;;;20.33;14.68;;;15.70;48.20;14.80;102968.00;;;;5066618;28;20043;-72
2022/01/25 07:21:20;;;;;;;20.88;14.98;;;15.70;48.20;14.80;102973.00;;;;5063735;28;20036;-72
2022/01/25 07:24:06;;;;;;;21.42;15.55;;;15.70;48.20;14.80;102970.00;;;;5059820;28;20036;-72
2022/01/25 07:26:52;;;;;;;23.02;15.52;;;15.80;48.20;14.80;102964.00;;;;5054613;28;20131;-72
2022/01/25 07:29:38;;;;;;;21.60;15.32;;;15.70;48.10;14.80;102964.00;;;;5062014;28;20037;-72
2022/01/25 07:32:24;;;;;;;20.60;14.90;;;15.70;48.10;14.80;102965.00;;;;5046380;28;20029;-72
2022/01/25 07:35:10;;;;;;;23.02;15.45;;;15.70;48.10;14.80;102967.00;;;;5042107;28;20024;-72
2022/01/25 07:37:56;;;;;;;20.75;14.88;;;15.60;48.00;14.80;102968.00;;;;5040496;28;20037;-72
2022/01/25 07:40:43;;;;;;;20.40;14.45;;;15.80;48.00;14.80;102971.00;;;;5067604;28;20041;-72
2022/01/25 07:43:29;;;;;;;21.55;14.98;;;15.80;48.00;14.80;102974.00;;;;5049793;28;20040;-72
2022/01/25 07:46:16;;;;;;;21.30;15.25;;;15.80;48.00;14.80;102972.00;;;;5062098;28;20051;-72
2022/01/25 07:49:02;;;;;;;21.43;14.63;;;15.80;48.00;14.80;102975.00;;;;5047225;28;20047;-73
2022/01/25 07:51:49;;;;;;;20.92;14.80;;;15.80;48.00;14.80;102974.00;;;;5053129;28;20279;-72
2022/01/25 07:54:35;;;;;;;20.13;14.38;;;15.80;48.00;14.80;102974.00;;;;5057553;28;20163;-72
2022/01/25 07:57:21;;;;;;;20.30;14.48;;;15.80;48.00;14.80;102975.00;;;;5062682;28;20029;-72
2022/01/25 08:00:08;;;;;;;19.92;14.52;;;15.80;48.00;14.80;102968.00;;;;5061889;28;20036;-72
2022/01/25 08:02:54;;;;;;;20.05;14.63;;;15.80;48.00;14.80;102965.00;;;;5050979;28;20428;-72
2022/01/25 08:05:41;;;;;;;20.48;13.63;;;15.80;48.00;14.80;102975.00;;;;5043373;28;20551;-72
2022/01/25 08:08:27;;;;;;;20.13;14.02;;;15.70;47.90;14.80;102968.00;;;;5050338;28;20037;-72
2022/01/25 08:11:13;;;;;;;21.45;14.65;;;15.80;47.90;14.80;102975.00;;;;5062282;28;20548;-72
2022/01/25 08:14:12;;;;;;;21.38;14.50;;;15.80;47.90;14.80;102974.00;;;;5062709;28;20540;-72
2022/01/25 08:16:58;;;;;;;18.33;13.73;;;15.80;47.90;14.80;102970.00;;;;5066875;28;20063;-72
2022/01/25 08:19:44;;;;;;;19.58;13.98;;;15.80;47.90;14.80;102973.00;;;;5058460;28;20482;-72
2022/01/25 08:22:32;;;;;;;19.05;13.80;;;15.80;47.90;14.80;102971.00;;;;5060373;28;20068;-72
2022/01/25 08:25:19;;;;;;;;;;;15.80;47.80;14.70;102969.00;;;;5068237;28;20040;-72
2022/01/25 08:28:05;;;;;;;22.73;14.15;;;15.70;48.00;14.70;102966.00;;;;5049123;28;19912;-73
2022/01/25 08:30:51;;;;;;;22.33;14.82;;;15.70;47.80;14.70;102966.00;;;;5064660;28;20059;-72
2022/01/25 08:33:39;;;;;;;21.80;14.18;;;15.80;47.80;14.70;102972.00;;;;5061951;28;20044;-72
2022/01/25 08:36:25;;;;;;;20.40;14.68;;;15.80;47.80;14.70;102970.00;;;;5060134;28;20036;-72
2022/01/25 08:39:11;;;;;;;21.40;14.30;;;15.80;47.80;14.70;102965.00;;;;5061995;28;20067;-72
2022/01/25 08:41:57;;;;;;;21.45;14.88;;;15.70;47.80;14.70;102967.00;;;;5052193;28;20037;-72
2022/01/25 08:44:43;;;;;;;20.42;13.77;;;15.70;47.80;14.70;102972.00;;;;5063260;28;20527;-72
2022/01/25 08:47:32;;;;;;;19.83;13.55;;;15.70;47.80;14.70;102968.00;;;;5046004;28;20066;-72
2022/01/25 08:50:24;;;;;;;22.63;14.73;;;15.70;47.80;14.70;102977.00;;;;5029578;28;20037;-72
2022/01/25 08:53:11;;;;;;;24.00;15.15;;;15.70;47.80;14.70;102981.00;;;;5058756;28;20032;-72
2022/01/25 08:55:57;;;;;;;20.02;14.60;;;15.80;47.90;14.70;102982.00;;;;5068906;28;20024;-72
2022/01/25 08:58:43;;;;;;;22.05;14.48;;;15.80;47.90;14.70;102978.00;;;;5064450;28;20037;-72
2022/01/25 09:01:29;;;;;;;21.88;14.93;;;15.70;47.80;14.70;102976.00;;;;5063551;28;20047;-72
2022/01/25 09:04:15;;;;;;;21.77;15.18;;;15.70;47.80;14.70;102984.00;;;;5065590;28;20474;-72
2022/01/25 09:07:02;;;;;;;21.05;14.18;;;15.70;47.80;14.70;102980.00;;;;5063901;28;20040;-72
2022/01/25 09:09:48;;;;;;;21.85;14.85;;;15.70;47.80;14.70;102978.00;;;;5064090;28;20058;-72
2022/01/25 09:12:34;;;;;;;19.05;13.95;;;15.70;47.70;14.70;102984.00;;;;5063281;28;20485;-72
2022/01/25 09:15:20;;;;;;;21.10;14.48;;;15.70;47.80;14.70;102981.00;;;;5070309;28;20167;-72
2022/01/25 09:18:06;;;;;;;21.70;14.02;;;15.70;47.80;14.70;102986.00;;;;5055769;28;20117;-72
2022/01/25 09:20:53;;;;;;;21.08;14.10;;;15.70;47.80;14.70;102990.00;;;;5048816;28;20063;-72
2022/01/25 09:23:39;;;;;;;20.60;14.10;;;15.70;47.80;14.70;102991.00;;;;5066312;28;20068;-72
2022/01/25 09:26:25;;;;;;;21.95;14.55;;;15.70;47.80;14.70;102993.00;;;;5050192;28;20037;-72
2022/01/25 09:29:11;;;;;;;21.65;14.70;;;15.70;47.70;14.70;102989.00;;;;5063591;28;20056;-72
2022/01/25 09:31:57;;;;;;;20.90;13.73;;;15.70;47.70;14.70;102995.00;;;;5065767;28;20035;-72
2022/01/25 09:34:43;;;;;;;20.73;14.38;;;15.70;47.70;14.70;102993.00;;;;5052762;28;20040;-72
2022/01/25 09:37:29;;;;;;;21.40;15.05;;;15.70;47.60;14.70;102997.00;;;;5054778;28;20047;-72
2022/01/25 09:40:15;;;;;;;22.67;15.25;;;15.70;47.60;14.70;102993.00;;;;5055033;28;20040;-72
2022/01/25 09:43:02;;;;;;;20.70;15.00;;;15.70;47.60;14.70;102996.00;;;;5063738;28;20049;-72
2022/01/25 09:45:48;;;;;;;22.65;14.82;;;15.80;47.70;14.70;102994.00;;;;5067612;28;20064;-72
2022/01/25 09:48:34;;;;;;;22.13;14.45;;;15.70;47.70;14.70;102995.00;;;;5067846;28;20481;-72
2022/01/25 09:51:21;;;;;;;20.88;14.13;;;15.70;47.60;14.80;102996.00;;;;5048035;28;20032;-72
2022/01/25 09:54:07;;;;;;;20.70;13.93;;;15.70;47.60;14.80;102996.00;;;;5052819;28;20041;-72
2022/01/25 09:56:53;;;;;;;20.73;13.85;;;15.70;47.60;14.70;102996.00;;;;5050382;28;20044;-72
2022/01/25 09:59:40;;;;;;;22.88;13.85;;;15.70;47.60;14.80;103014.00;;;;5064145;28;20036;-72
2022/01/25 10:06:20;;;;;;;22.70;13.75;;;15.70;47.60;14.70;103010.00;;;;5029294;28;20041;-72
2022/01/25 10:09:07;;;;;;;24.38;14.63;;;15.80;47.60;14.70;103011.00;;;;5064940;28;20079;-72
2022/01/25 10:11:53;;;;;;;23.58;15.23;;;15.80;48.30;14.80;103014.00;;;;5049231;28;20563;-72
2022/01/25 10:14:39;;;;;;;22.35;14.73;;;15.80;47.60;14.70;103018.00;;;;5036873;28;20036;-72
2022/01/25 10:17:35;;;;;;;21.48;14.45;;;15.80;47.60;14.70;103015.00;;;;5065662;28;20028;-72
2022/01/25 10:20:35;;;;;;;18.35;13.82;;;15.70;47.50;14.70;103024.00;;;;5062607;28;20037;-72
2022/01/25 10:23:25;;;;;;;19.13;13.75;;;15.70;47.50;14.70;103025.00;;;;5053656;28;20049;-72
2022/01/25 10:26:11;;;;;;;21.55;14.15;;;15.80;47.60;14.70;103030.00;;;;5050283;28;20090;-72
2022/01/25 10:28:57;;;;;;;22.02;14.05;;;15.80;47.60;14.70;103034.00;;;;5046187;28;20046;-72
2022/01/25 10:31:57;;;;;;;22.15;14.43;;;15.80;47.60;14.70;103030.00;;;;5054295;28;20044;-73
2022/01/25 10:34:49;;;;;;;22.13;15.32;;;15.70;47.50;14.80;103030.00;;;;5051486;28;20501;-73
2022/01/25 10:37:40;;;;;;;21.33;14.20;;;15.70;47.50;14.70;103024.00;;;;5067100;28;20500;-72
2022/01/25 10:40:38;;;;;;;20.95;14.73;;;15.70;47.50;14.70;103025.00;;;;5066080;28;20032;-73
2022/01/25 10:43:24;;;;;;;20.55;13.73;;;15.70;47.50;14.70;103020.00;;;;5049511;28;20060;-72
2022/01/25 10:46:26;;;;;;;20.02;14.07;;;15.70;47.50;14.70;103023.00;;;;5066990;28;20070;-72
2022/01/25 10:49:13;;;;;;;20.35;13.50;;;15.70;47.50;14.70;103025.00;;;;5051273;28;20194;-73
2022/01/25 10:51:59;;;;;;;20.73;13.68;;;15.70;47.50;14.70;103018.00;;;;5065617;28;20089;-72
2022/01/25 10:54:46;;;;;;;23.13;14.73;;;15.70;47.50;14.70;103021.00;;;;5065829;28;20040;-72
2022/01/25 10:57:32;;;;;;;20.77;14.18;;;15.70;47.50;14.70;103017.00;;;;5065321;28;20149;-72
2022/01/25 11:00:18;;;;;;;19.73;13.45;;;15.70;47.50;14.70;103019.00;;;;5062470;28;20036;-72
2022/01/25 11:03:04;;;;;;;21.10;13.85;;;15.70;48.20;14.70;103024.00;;;;5065068;28;20040;-72
2022/01/25 11:05:50;;;;;;;21.27;14.18;;;15.70;47.50;14.70;103024.00;;;;5050098;28;20140;-72
2022/01/25 11:08:37;;;;;;;19.60;13.07;;;15.70;47.50;14.70;103013.00;;;;5062544;28;20067;-72
2022/01/25 11:11:25;;;;;;;23.27;15.00;;;15.70;47.50;14.70;103011.00;;;;5050036;28;20041;-72
2022/01/25 11:17:17;;;;;;;20.65;14.45;;;15.70;48.20;14.70;103015.00;;;;5064920;28;20503;-72
2022/01/25 11:20:04;;;;;;;21.77;14.77;;;15.70;47.50;14.70;103016.00;;;;5066302;28;20119;-72
2022/01/25 11:22:50;;;;;;;20.00;13.43;;;15.70;47.50;14.70;103010.00;;;;5067559;28;20535;-72
2022/01/25 11:25:36;;;;;;;18.40;12.80;;;15.70;47.50;14.70;103017.00;;;;5063462;28;20041;-72
2022/01/25 11:28:23;;;;;;;20.95;13.93;;;15.70;47.50;14.70;103016.00;;;;5043028;28;20044;-72
2022/01/25 11:31:14;;;;;;;20.33;13.45;;;15.70;47.50;14.70;103021.00;;;;5045716;28;20040;-72
2022/01/25 11:34:00;;;;;;;19.98;13.60;;;15.70;47.40;14.70;103012.00;;;;5050270;28;20032;-72
2022/01/25 11:36:57;;;;;;;21.17;13.32;;;15.70;47.40;14.70;103007.00;;;;5049652;28;20090;-72
2022/01/25 11:39:48;;;;;;;21.95;13.57;;;15.70;47.40;14.70;103012.00;;;;5044509;28;20067;-72
2022/01/25 11:42:38;;;;;;;20.67;13.35;;;15.70;47.40;14.70;103005.00;;;;5063062;28;20407;-72
2022/01/25 11:45:26;;;;;;;18.63;13.20;;;15.70;47.40;14.70;103010.00;;;;5060647;28;20482;-72
2022/01/25 11:48:12;;;;;;;21.02;13.73;;;15.70;47.40;14.70;103005.00;;;;5049924;28;20032;-72
2022/01/25 11:51:00;;;;;;;21.50;12.70;;;15.70;47.40;14.80;103001.00;;;;5064138;28;20044;-72
2022/01/25 11:53:48;;;;;;;20.92;13.43;;;15.70;47.40;14.70;102997.00;;;;5038794;28;20133;-72
2022/01/25 11:56:36;;;;;;;21.23;12.95;;;15.80;47.40;14.80;102999.00;;;;5052444;28;21825;-72
2022/01/25 11:59:22;;;;;;;22.52;14.02;;;15.80;47.40;14.80;102995.00;;;;5045661;28;20118;-72
2022/01/25 12:02:08;;;;;;;19.95;13.43;;;15.80;47.40;14.70;102988.00;;;;5030807;28;20045;-73
2022/01/25 12:05:07;;;;;;;19.50;13.10;;;15.70;47.40;14.70;102998.00;;;;5047056;28;20049;-72
2022/01/25 12:08:12;;;;;;;19.65;13.07;;;15.70;47.30;14.70;102989.00;;;;5064617;28;20037;-72
2022/01/25 12:11:06;;;;;;;20.58;13.20;;;15.60;47.30;14.80;102990.00;;;;5048716;28;20448;-72
2022/01/25 12:14:22;;;;;;;20.27;13.40;;;15.80;47.40;14.70;102983.00;;;;5064085;28;20410;-72
2022/01/25 12:17:15;;;;;;;18.23;12.77;;;15.70;47.30;14.70;102982.00;;;;5063060;28;20049;-72
2022/01/25 12:20:04;;;;;;;18.77;12.75;;;15.80;47.40;14.70;102982.00;;;;5060198;28;20044;-72
2022/01/25 12:23:10;;;;;;;20.05;12.93;;;15.70;47.40;14.70;102984.00;;;;5049613;28;20075;-72
2022/01/25 12:26:04;;;;;;;18.90;13.55;;;15.70;47.30;14.70;102976.00;;;;5060291;28;20024;-72
2022/01/25 12:28:50;;;;;;;17.88;12.35;;;15.70;47.40;14.70;102971.00;;;;5060349;28;20032;-72
2022/01/25 12:31:42;;;;;;;20.02;12.23;;;15.80;47.40;14.70;102975.00;;;;5063866;28;20040;-72
2022/01/25 12:34:28;;;;;;;21.77;12.75;;;15.70;47.30;14.70;102968.00;;;;5063481;28;20039;-73
2022/01/25 12:37:44;;;;;;;21.35;13.57;;;15.70;47.40;14.70;102962.00;;;;5061536;28;20077;-72
2022/01/25 12:40:34;;;;;;;19.48;12.15;;;15.70;47.40;14.70;102957.00;;;;5051223;28;20112;-72
2022/01/25 12:43:40;;;;;;;18.23;11.57;;;15.80;47.40;14.70;102958.00;;;;5050678;28;20033;-72
2022/01/25 12:46:37;;;;;;;18.83;12.35;;;15.70;47.30;14.70;102957.00;;;;5037341;28;20116;-72
2022/01/25 12:49:26;;;;;;;19.45;12.48;;;15.70;47.30;14.70;102944.00;;;;5061041;28;20045;-72
2022/01/25 12:52:17;;;;;;;16.23;11.52;;;15.70;47.30;14.70;102939.00;;;;5057577;28;20028;-72
2022/01/25 12:55:03;;;;;;;19.23;12.27;;;15.70;47.30;14.70;102940.00;;;;5049911;28;20033;-72
2022/01/25 12:57:50;;;;;;;19.85;12.57;;;15.70;47.30;14.70;102943.00;;;;5051286;28;20041;-72
2022/01/25 13:00:46;;;;;;;19.50;11.68;;;15.70;47.30;14.80;102930.00;;;;5028507;28;20071;-72
2022/01/25 13:03:39;;;;;;;15.65;11.23;;;15.70;47.30;14.70;102930.00;;;;5064715;28;20478;-72
2022/01/25 13:06:29;;;;;;;19.67;11.93;;;15.70;47.30;14.70;102930.00;;;;5044087;28;20067;-72
2022/01/25 13:09:28;;;;;;;17.15;11.55;;;15.80;47.40;14.70;102933.00;;;;5053674;28;20401;-72
2022/01/25 13:12:23;;;;;;;20.58;13.07;;;15.80;47.30;14.80;102935.00;;;;5045744;28;20044;-72
2022/01/25 13:15:28;;;;;;;17.25;12.18;;;15.80;47.30;14.70;102924.00;;;;5060459;28;20028;-72
2022/01/25 13:18:14;;;;;;;19.35;12.70;;;15.80;47.30;14.80;102923.00;;;;5059328;28;20029;-73
2022/01/25 13:21:10;;;;;;;20.08;12.13;;;15.70;47.30;14.70;102913.00;;;;5057089;28;20511;-72
2022/01/25 13:23:56;;;;;;;19.13;12.63;;;15.80;47.40;14.70;102922.00;;;;5044500;28;20048;-72
2022/01/25 13:27:00;;;;;;;19.55;11.70;;;15.80;47.30;14.70;102914.00;;;;5046609;28;20044;-72
2022/01/25 13:32:57;;;;;;;19.25;12.23;;;15.70;47.20;14.70;102916.00;;;;5049801;28;20098;-72
2022/01/25 13:35:49;;;;;;;19.58;12.45;;;15.80;47.30;14.70;102908.00;;;;5068333;28;20113;-72